Time;durP1;ratioP1;P1;durP2;ratioP2;P2;SDS_P1;SDS_P2;PMS_P1;PMS_P2;Temp;Humidity;BMP_temperature;BMP_pressure;BME280_temperature;BME280_humidity;BME280_pressure;Samples;Min_cycle;Max_cycle;Signal;HPM_P1;HPM_P2
2022/06/30 00:00:02;;;;;;;11.10;10.20;;;20.90;94.40;;;20.14;82.79;97598.00;5011999;28;20474;-69
2022/06/30 00:02:29;;;;;;;11.03;9.93;;;20.90;94.60;;;20.01;83.02;97600.28;5005867;28;20469;-68
2022/06/30 00:04:56;;;;;;;10.60;9.80;;;20.80;94.70;;;20.12;83.12;97591.97;5012409;28;20472;-69
2022/06/30 00:07:25;;;;;;;10.83;9.93;;;20.80;94.70;;;20.12;82.94;97600.22;5016449;28;20472;-70
2022/06/30 00:09:53;;;;;;;9.90;9.00;;;20.90;94.60;;;20.07;83.28;97596.38;5015480;28;20474;-70
2022/06/30 00:12:20;;;;;;;11.57;10.67;;;20.80;94.90;;;20.01;83.63;97592.06;5030501;28;21088;-69
2022/06/30 00:14:47;;;;;;;11.60;10.60;;;20.80;95.00;;;19.92;84.15;97594.59;5005824;28;20990;-69
2022/06/30 00:17:15;;;;;;;11.03;9.97;;;20.70;95.40;;;19.97;84.05;97596.50;5012037;28;20469;-68
2022/06/30 00:19:42;;;;;;;10.93;9.83;;;20.70;95.40;;;19.86;84.67;97584.75;5022802;28;20519;-69
2022/06/30 00:22:10;;;;;;;10.40;9.50;;;20.60;95.70;;;19.84;84.90;97581.47;5018239;28;20465;-69
2022/06/30 00:24:39;;;;;;;11.07;10.20;;;20.60;96.00;;;19.87;84.67;97585.56;5013403;28;20474;-69
2022/06/30 00:27:07;;;;;;;11.17;10.37;;;20.60;95.90;;;19.85;84.59;97585.84;5008921;28;20524;-69
2022/06/30 00:29:34;;;;;;;11.13;10.03;;;20.60;96.00;;;19.85;84.87;97587.78;5015336;28;20515;-69
2022/06/30 00:32:02;;;;;;;11.80;10.73;;;20.60;96.10;;;19.79;84.93;97585.09;5014835;28;20470;-69
2022/06/30 00:34:29;;;;;;;11.27;10.17;;;20.60;96.10;;;19.70;85.05;97584.06;5013541;28;20972;-68
2022/06/30 00:36:56;;;;;;;11.70;10.60;;;20.60;96.00;;;19.69;86.01;97590.66;5032351;27;20985;-69
2022/06/30 00:39:23;;;;;;;11.13;10.13;;;20.50;96.60;;;19.74;85.38;97587.88;5018309;28;20997;-68
2022/06/30 00:41:52;;;;;;;11.90;10.90;;;20.50;96.40;;;19.76;85.39;97591.13;5018814;28;20536;-69
2022/06/30 00:44:19;;;;;;;11.27;10.47;;;20.50;96.50;;;19.71;85.58;97585.69;5016972;28;20463;-68
2022/06/30 00:46:46;;;;;;;11.27;10.27;;;20.50;96.80;;;19.74;85.63;97584.31;5014894;28;20882;-68
2022/06/30 00:49:15;;;;;;;12.23;11.20;;;20.50;96.70;;;19.82;85.20;97578.22;5018127;28;20485;-69
2022/06/30 00:51:42;;;;;;;11.37;10.43;;;20.50;96.50;;;19.77;85.61;97573.59;5025485;27;21011;-69
2022/06/30 00:54:12;;;;;;;11.03;10.13;;;20.50;96.40;;;19.80;85.38;97564.81;5019735;27;20580;-69
2022/06/30 00:56:44;;;;;;;11.23;10.40;;;20.50;96.40;;;19.73;85.89;97564.31;5022093;27;20495;-68
2022/06/30 00:59:17;;;;;;;11.93;10.80;;;20.50;96.40;;;19.76;85.91;97569.22;5020280;27;20979;-69
2022/06/30 01:01:44;;;;;;;11.37;10.47;;;20.50;96.60;;;19.86;85.54;97567.50;5031734;27;20458;-70
2022/06/30 01:04:14;;;;;;;12.77;11.50;;;20.50;96.70;;;19.81;85.27;97566.44;5018732;28;20821;-70
2022/06/30 01:06:45;;;;;;;11.47;10.53;;;20.60;96.50;;;19.82;85.31;97559.03;5016998;27;20458;-70
2022/06/30 01:12:41;;;;;;;11.20;10.20;;;20.60;96.40;;;19.85;85.30;97549.41;5025143;27;20585;-70
2022/06/30 01:14:47;;;;;;;10.90;9.90;;;20.60;96.20;;;19.79;85.61;97546.72;5014672;27;20469;-70
2022/06/30 01:17:14;;;;;;;12.83;11.53;;;20.60;96.60;;;19.89;85.06;97545.00;5014592;28;21059;-70
2022/06/30 01:19:52;;;;;;;12.13;11.10;;;20.60;96.20;;;19.79;85.27;97546.72;5019354;27;20485;-71
2022/06/30 01:22:21;;;;;;;11.83;10.93;;;20.60;96.30;;;19.81;85.00;97543.69;5016284;28;20548;-70
2022/06/30 01:24:49;;;;;;;11.33;10.40;;;20.60;96.20;;;19.82;85.04;97546.16;5015992;27;20556;-68
2022/06/30 01:27:16;;;;;;;11.83;10.73;;;20.60;96.20;;;19.85;84.95;97543.94;5018233;27;20580;-67
2022/06/30 01:29:44;;;;;;;11.70;10.70;;;20.60;96.20;;;19.80;84.68;97542.88;5019021;28;20464;-69
2022/06/30 01:32:11;;;;;;;11.37;10.47;;;20.60;96.00;;;19.84;84.70;97540.38;5015618;28;20609;-69
2022/06/30 01:34:39;;;;;;;11.90;10.90;;;20.60;96.10;;;19.73;85.26;97542.38;5018220;27;20900;-69
2022/06/30 01:37:06;;;;;;;11.83;10.80;;;20.50;96.20;;;19.49;85.03;97495.75;5013483;27;20982;-68
2022/06/30 01:39:36;;;;;;;13.50;12.30;;;20.50;96.20;;;19.68;85.74;97539.69;5017321;27;20570;-70
2022/06/30 01:42:04;;;;;;;11.80;10.43;;;20.40;96.50;;;19.64;85.70;97544.13;5018126;27;20931;-69
2022/06/30 01:44:32;;;;;;;13.37;12.10;;;20.40;96.70;;;19.62;85.81;97551.78;5019035;28;20566;-69
2022/06/30 01:46:59;;;;;;;12.37;11.30;;;20.40;96.70;;;19.61;86.03;97553.72;5016419;28;20513;-70
2022/06/30 01:49:26;;;;;;;12.43;11.30;;;20.40;96.90;;;19.60;86.16;97559.47;5018771;28;20555;-68
2022/06/30 01:51:54;;;;;;;14.37;12.63;;;20.40;96.90;;;19.52;86.51;97552.69;5020069;28;20558;-69
2022/06/30 01:54:21;;;;;;;12.07;11.07;;;20.30;96.80;;;19.42;86.96;97547.31;5016653;27;20466;-69
2022/06/30 01:56:50;;;;;;;12.83;11.73;;;20.20;97.40;;;19.38;87.50;97541.56;5015830;28;20465;-70
2022/06/30 01:59:18;;;;;;;12.27;11.30;;;20.10;98.00;;;19.30;87.89;97553.94;5020477;27;20506;-69
2022/06/30 02:01:45;;;;;;;13.10;12.10;;;20.00;98.90;;;19.37;87.64;97548.16;5016682;27;20458;-69
2022/06/30 02:06:56;;;;;;;13.30;12.30;;;20.00;98.50;;;19.21;88.29;97541.94;5016326;28;20644;-68
2022/06/30 02:09:23;;;;;;;14.10;12.90;;;20.00;99.10;;;19.20;88.39;97549.34;5026971;28;20507;-69
2022/06/30 02:12:44;;;;;;;13.73;12.47;;;20.00;99.20;;;19.09;88.76;97550.50;5011923;28;20478;-69
2022/06/30 02:14:40;;;;;;;12.67;11.53;;;19.90;99.20;;;19.16;88.54;97551.00;5012085;28;20465;-69
2022/06/30 02:17:07;;;;;;;14.83;13.70;;;19.90;99.40;;;19.11;88.88;97551.88;5012483;28;20534;-70
2022/06/30 02:19:34;;;;;;;14.40;13.10;;;19.90;99.60;;;19.03;89.47;97552.47;5018204;28;20477;-69
2022/06/30 02:22:02;;;;;;;14.77;13.67;;;19.80;99.90;;;19.13;89.11;97550.78;5017170;28;20501;-70
2022/06/30 02:24:29;;;;;;;15.13;13.63;;;19.80;99.90;;;19.08;89.05;97554.34;5020950;28;21193;-70
2022/06/30 02:26:58;;;;;;;15.13;13.70;;;19.80;99.60;;;19.02;89.60;97556.28;5022614;27;20465;-69
2022/06/30 02:29:25;;;;;;;13.47;12.47;;;19.80;99.90;;;18.99;89.95;97551.38;5021029;28;20490;-69
2022/06/30 02:31:52;;;;;;;14.00;12.73;;;19.80;99.90;;;19.05;89.43;97553.00;5019907;28;20467;-68
2022/06/30 02:34:19;;;;;;;14.73;13.43;;;19.80;99.90;;;19.04;89.42;97559.56;5031397;27;20483;-69
2022/06/30 02:36:46;;;;;;;13.17;12.13;;;19.80;99.50;;;18.89;90.39;97563.19;5025468;28;20462;-70
2022/06/30 02:39:13;;;;;;;14.00;12.70;;;19.70;99.90;;;18.95;90.26;97567.53;5019191;28;21935;-70
2022/06/30 02:41:41;;;;;;;14.43;13.33;;;19.70;99.90;;;18.73;91.50;97569.78;5022217;28;20499;-69
2022/06/30 02:44:09;;;;;;;15.60;14.03;;;19.60;99.90;;;18.65;92.02;97557.50;5014843;27;20497;-69
2022/06/30 02:46:37;;;;;;;12.90;11.70;;;19.50;99.90;;;18.65;92.01;97566.56;5016532;28;20546;-70
2022/06/30 02:49:04;;;;;;;14.57;13.33;;;19.50;99.90;;;18.53;92.64;97563.31;5019008;28;20469;-69
2022/06/30 02:51:32;;;;;;;15.27;13.97;;;19.40;99.90;;;18.53;92.69;97563.31;5018050;27;20458;-70
2022/06/30 02:53:59;;;;;;;14.10;12.90;;;19.30;99.90;;;18.51;92.90;97568.25;5014882;28;20461;-70
2022/06/30 02:56:27;;;;;;;15.27;13.70;;;19.30;99.90;;;18.45;93.14;97561.16;5019617;28;20512;-70
2022/06/30 02:58:54;;;;;;;14.27;13.17;;;19.30;99.90;;;18.32;93.78;97557.09;5014232;28;20457;-70
2022/06/30 03:01:22;;;;;;;16.07;14.37;;;19.20;99.90;;;18.30;93.91;97571.03;5025899;27;21020;-69
2022/06/30 03:03:50;;;;;;;15.17;13.97;;;19.10;99.90;;;18.34;93.87;97576.75;5033461;27;20472;-70
2022/06/30 03:06:17;;;;;;;15.23;13.93;;;19.10;99.90;;;18.31;94.10;97575.41;5018787;27;20875;-70
2022/06/30 03:08:44;;;;;;;14.97;13.80;;;19.10;99.90;;;18.24;94.22;97564.75;5015233;27;21100;-70
2022/06/30 03:11:16;;;;;;;14.20;12.90;;;19.10;99.90;;;18.23;94.74;97573.22;5031165;27;20459;-69
2022/06/30 03:13:45;;;;;;;16.13;14.63;;;19.10;99.90;;;18.18;94.87;97586.91;5018811;27;20861;-69
2022/06/30 03:16:12;;;;;;;15.20;13.67;;;19.00;99.90;;;18.23;94.33;97578.69;5015157;28;20850;-69
2022/06/30 03:18:41;;;;;;;15.20;13.73;;;19.00;99.90;;;18.21;94.73;97583.63;5018907;28;20478;-69
2022/06/30 03:21:09;;;;;;;15.00;13.70;;;19.00;99.90;;;18.19;94.38;97572.16;5017891;28;20482;-69
2022/06/30 03:23:37;;;;;;;15.17;13.80;;;19.10;99.90;;;18.36;93.52;97582.78;5015901;27;20466;-69
2022/06/30 03:26:05;;;;;;;16.30;14.80;;;19.10;99.90;;;18.35;93.77;97586.59;5016217;28;20550;-70
2022/06/30 03:28:33;;;;;;;16.10;14.60;;;19.10;99.90;;;18.37;93.72;97578.97;5015582;28;20458;-69
2022/06/30 03:31:01;;;;;;;15.40;14.10;;;19.10;99.90;;;18.47;92.88;97583.59;5021497;27;20458;-69
2022/06/30 03:33:28;;;;;;;16.90;15.40;;;19.20;99.90;;;18.45;93.04;97581.13;5013990;28;20962;-69
2022/06/30 03:35:57;;;;;;;16.40;15.00;;;19.20;99.90;;;18.51;92.86;97579.19;5020673;28;20486;-69
2022/06/30 03:38:25;;;;;;;16.17;14.47;;;19.30;99.90;;;18.51;92.79;97580.03;5017155;28;20469;-69
2022/06/30 03:40:52;;;;;;;15.20;14.00;;;19.30;99.90;;;18.52;92.97;97580.81;5036716;28;20475;-69
2022/06/30 03:43:21;;;;;;;16.90;15.37;;;19.30;99.90;;;18.59;91.98;97575.88;5011171;28;20464;-69
2022/06/30 03:45:48;;;;;;;16.57;14.97;;;19.40;99.90;;;18.65;91.95;97580.22;5014719;28;20458;-70
2022/06/30 03:48:16;;;;;;;16.57;15.00;;;19.40;99.90;;;18.71;91.79;97581.03;5013676;28;20457;-70
2022/06/30 03:50:43;;;;;;;14.73;13.50;;;19.50;99.90;;;18.78;90.93;97583.47;5018577;28;20453;-70
2022/06/30 03:53:12;;;;;;;15.97;14.67;;;19.60;99.90;;;18.95;89.65;97581.22;5012125;28;20550;-70
2022/06/30 03:55:39;;;;;;;15.03;13.80;;;19.70;99.90;;;18.86;90.14;97580.13;5018950;28;20456;-70
2022/06/30 03:58:08;;;;;;;16.00;14.80;;;19.70;99.80;;;18.88;90.17;97586.19;5016252;28;20458;-70
2022/06/30 04:00:35;;;;;;;16.43;15.13;;;19.70;99.90;;;18.89;89.91;97585.09;5012492;28;20912;-70
2022/06/30 04:03:03;;;;;;;16.50;15.10;;;19.70;99.40;;;18.80;90.59;97586.75;5016641;28;20470;-71
2022/06/30 04:05:30;;;;;;;15.30;14.20;;;19.60;99.90;;;18.94;89.95;97590.53;5011159;28;20553;-69
2022/06/30 04:07:58;;;;;;;15.47;14.10;;;19.70;99.90;;;18.95;89.57;97589.41;5012800;28;20532;-69
2022/06/30 04:10:27;;;;;;;16.03;14.37;;;19.80;99.20;;;19.01;89.23;97601.19;5017620;28;20573;-68
2022/06/30 04:12:54;;;;;;;16.93;15.40;;;19.80;98.90;;;18.92;89.22;97600.94;5010487;28;20529;-69
2022/06/30 04:15:22;;;;;;;15.10;13.60;;;19.80;98.60;;;19.13;88.43;97597.31;5014166;28;20479;-70
2022/06/30 04:17:49;;;;;;;17.70;16.10;;;19.90;98.40;;;19.17;88.02;97596.44;5020861;28;20496;-70
2022/06/30 04:20:19;;;;;;;15.33;13.93;;;19.90;97.90;;;19.28;87.26;97597.22;5022318;28;20537;-70
2022/06/30 04:22:49;;;;;;;14.57;13.27;;;20.00;97.30;;;19.37;86.67;97598.25;5020617;27;20567;-70
2022/06/30 04:25:17;;;;;;;15.27;13.87;;;20.10;96.80;;;19.30;86.94;97588.72;5037247;27;20461;-69
2022/06/30 04:27:49;;;;;;;15.17;13.87;;;20.10;96.90;;;19.28;86.09;97571.75;5013911;28;20474;-69
2022/06/30 04:32:37;;;;;;;15.60;14.40;;;20.20;96.40;;;19.47;86.06;97604.78;5014993;28;20507;-70
2022/06/30 04:33:07;;;;;;;15.63;14.33;;;20.20;96.50;;;19.25;87.13;97603.25;5014949;28;20846;-69
2022/06/30 04:35:35;;;;;;;16.13;14.57;;;20.10;96.80;;;19.36;86.37;97598.56;5017753;28;20549;-74
2022/06/30 04:38:03;;;;;;;15.87;14.67;;;20.10;96.50;;;19.57;85.02;97582.81;5018351;28;20522;-70
2022/06/30 04:43:17;;;;;;;14.47;13.27;;;20.40;95.40;;;19.81;83.81;97598.50;5014285;28;20462;-69
2022/06/30 04:45:44;;;;;;;15.23;13.93;;;20.60;94.60;;;19.85;83.85;97604.22;5018068;28;20457;-71
2022/06/30 04:48:12;;;;;;;16.27;14.77;;;20.60;94.80;;;19.92;83.08;97605.56;5019652;27;20549;-69
2022/06/30 04:50:39;;;;;;;15.53;14.13;;;20.60;94.20;;;19.86;83.17;97606.66;5018125;27;20463;-69
2022/06/30 04:53:07;;;;;;;15.80;14.30;;;20.70;94.00;;;19.73;83.92;97597.19;5011390;28;20477;-70
2022/06/30 04:55:34;;;;;;;15.27;13.47;;;20.60;94.10;;;19.78;83.55;97597.13;5032337;27;20529;-70
2022/06/30 04:58:02;;;;;;;13.70;12.70;;;20.60;94.10;;;20.37;81.04;97594.44;5028938;27;20527;-70
2022/06/30 05:00:31;;;;;;;14.20;13.07;;;21.00;93.30;;;20.50;80.15;97600.38;5032995;28;20482;-70
2022/06/30 05:02:59;;;;;;;15.47;13.87;;;21.20;92.50;;;20.47;79.67;97589.97;5016288;28;20469;-71
2022/06/30 05:05:27;;;;;;;13.33;12.00;;;21.20;92.30;;;20.64;79.15;97597.75;5027184;27;20530;-77
2022/06/30 05:07:54;;;;;;;14.23;12.63;;;21.30;92.10;;;20.79;78.16;97588.50;5018547;28;20465;-69
2022/06/30 05:10:21;;;;;;;15.67;13.60;;;21.50;91.40;;;20.80;77.56;97590.16;5021613;28;20471;-70
2022/06/30 05:12:49;;;;;;;13.90;12.63;;;21.60;91.00;;;20.84;77.58;97588.47;5016442;28;20461;-70
2022/06/30 05:15:16;;;;;;;14.23;12.83;;;21.70;90.90;;;21.23;76.11;97592.13;5016356;28;20462;-70
2022/06/30 05:17:45;;;;;;;14.20;13.00;;;21.70;90.60;;;20.95;76.36;97592.72;5014143;28;20515;-69
2022/06/30 05:20:12;;;;;;;14.70;13.20;;;21.80;90.30;;;21.46;74.94;97595.91;5014751;28;20471;-69
2022/06/30 05:22:40;;;;;;;14.27;12.87;;;22.00;90.20;;;21.81;73.27;97592.91;5014083;28;21092;-69
2022/06/30 05:27:53;;;;;;;15.10;13.67;;;22.50;88.20;;;21.91;72.69;97589.19;5015833;27;20551;-69
2022/06/30 05:30:21;;;;;;;17.83;12.83;;;22.60;88.20;;;21.53;73.89;97601.00;5015527;27;20483;-68
2022/06/30 05:32:49;;;;;;;16.70;13.20;;;22.40;88.20;;;21.76;73.62;97599.34;5017439;28;20455;-70
2022/06/30 05:35:17;;;;;;;13.53;12.47;;;22.40;88.50;;;22.05;71.74;97603.00;5012282;27;20470;-70
2022/06/30 05:37:44;;;;;;;13.70;12.30;;;22.80;87.60;;;22.85;69.15;97600.16;5036088;27;20459;-69
2022/06/30 05:40:12;;;;;;;13.00;11.90;;;23.40;86.50;;;24.29;64.03;97600.75;5016653;28;20452;-69
2022/06/30 05:42:40;;;;;;;13.23;11.77;;;24.80;83.50;;;25.21;60.27;97597.72;5015471;28;20579;-69
2022/06/30 05:45:09;;;;;;;12.90;11.80;;;26.00;80.30;;;24.53;62.25;97596.84;5016111;27;20470;-70
2022/06/30 05:47:46;;;;;;;13.90;12.07;;;25.80;79.50;;;24.15;63.59;97594.50;5020255;27;20458;-70
2022/06/30 05:50:15;;;;;;;14.10;12.60;;;25.30;80.30;;;24.60;61.51;97588.09;5035314;28;20468;-70
2022/06/30 05:52:42;;;;;;;15.10;12.50;;;25.70;79.30;;;25.78;58.90;97582.16;5017815;28;20454;-69
2022/06/30 05:55:11;;;;;;;11.90;11.00;;;26.30;78.60;;;26.15;57.60;97590.88;5016756;28;20487;-69
2022/06/30 05:57:54;;;;;;;12.50;11.23;;;27.10;76.20;;;26.44;56.21;97578.28;5012054;28;20518;-69
2022/06/30 06:00:23;;;;;;;12.97;11.70;;;27.30;74.90;;;26.43;55.73;97576.66;5012015;28;20501;-70
2022/06/30 06:02:50;;;;;;;11.80;10.70;;;27.70;73.70;;;25.91;57.61;97583.13;5016727;27;21109;-70
2022/06/30 06:05:19;;;;;;;12.23;11.13;;;27.40;73.60;;;25.63;58.38;97584.28;5017596;28;20488;-70
2022/06/30 06:07:47;;;;;;;12.27;9.83;;;27.30;73.60;;;26.06;57.31;97579.03;5013661;28;20459;-69
2022/06/30 06:10:14;;;;;;;12.70;11.50;;;27.50;73.40;;;26.10;56.85;97591.06;5034134;27;20493;-71
2022/06/30 06:12:43;;;;;;;12.33;11.10;;;27.70;72.60;;;26.85;54.69;97593.44;5017553;28;20472;-70
2022/06/30 06:15:11;;;;;;;13.20;12.10;;;28.20;71.40;;;26.58;54.84;97558.72;5014508;28;20455;-68
2022/06/30 06:17:43;;;;;;;23.67;10.53;;;28.40;70.50;;;26.93;53.92;97577.16;5013890;28;20949;-70
2022/06/30 06:20:13;;;;;;;11.77;10.57;;;28.50;69.80;;;26.97;54.18;97572.56;5015642;28;20481;-70
2022/06/30 06:22:42;;;;;;;12.80;10.37;;;28.40;69.50;;;27.37;52.48;97585.19;5015107;28;20508;-71
2022/06/30 06:25:10;;;;;;;11.00;10.07;;;28.80;68.30;;;27.32;52.40;97580.63;5014212;28;20558;-71
2022/06/30 06:27:38;;;;;;;10.70;9.60;;;28.90;67.70;;;27.67;51.77;97587.91;5012893;28;20454;-71
2022/06/30 06:30:08;;;;;;;13.33;10.70;;;29.10;67.50;;;27.65;51.09;97579.13;5011421;28;20512;-70
2022/06/30 06:32:36;;;;;;;15.60;9.47;;;29.10;66.60;;;27.44;51.91;97574.34;5013777;28;20454;-70
2022/06/30 06:35:05;;;;;;;10.77;9.73;;;28.90;67.10;;;25.69;56.62;97573.88;5006944;28;20483;-70
2022/06/30 06:37:32;;;;;;;12.87;10.13;;;27.70;68.30;;;25.16;58.49;97585.69;5018358;28;20537;-70
2022/06/30 06:40:01;;;;;;;11.03;9.60;;;26.50;70.90;;;24.62;61.18;97581.09;5019925;28;20555;-69
2022/06/30 06:42:28;;;;;;;11.10;10.00;;;25.80;73.10;;;24.37;61.37;97576.31;5018493;28;20629;-71
2022/06/30 06:44:55;;;;;;;11.80;10.10;;;25.40;74.10;;;24.32;61.92;97569.78;5017806;28;20465;-70
2022/06/30 06:47:23;;;;;;;11.17;9.93;;;25.20;75.40;;;24.36;61.89;97574.69;5013518;28;20468;-70
2022/06/30 06:49:50;;;;;;;11.23;10.43;;;25.10;76.10;;;24.23;62.38;97574.44;5013999;28;20457;-69
2022/06/30 06:52:17;;;;;;;12.07;10.97;;;25.00;76.70;;;24.10;63.15;97565.09;5012837;27;20479;-69
2022/06/30 06:54:45;;;;;;;12.20;11.10;;;25.00;77.10;;;24.19;62.70;97562.41;5014173;28;20466;-69
2022/06/30 06:57:13;;;;;;;11.00;9.90;;;25.00;77.60;;;24.35;62.28;97564.78;5029023;27;20793;-70
2022/06/30 06:59:40;;;;;;;11.50;10.60;;;25.10;77.50;;;24.55;61.34;97564.19;5012089;28;20464;-72
2022/06/30 07:02:08;;;;;;;11.27;10.07;;;25.20;77.10;;;24.30;62.31;97561.00;5026744;28;20473;-69
2022/06/30 07:04:35;;;;;;;10.73;9.83;;;25.20;77.00;;;23.93;63.39;97571.31;5022565;28;20468;-70
2022/06/30 07:07:03;;;;;;;9.97;9.10;;;24.80;77.40;;;23.93;63.24;97568.56;5012472;27;20545;-71
2022/06/30 07:09:31;;;;;;;12.50;10.70;;;24.70;77.80;;;24.04;63.23;97564.44;5015666;27;20469;-71
2022/06/30 07:11:58;;;;;;;10.57;9.77;;;24.70;78.10;;;24.26;62.33;97565.53;5012980;27;20983;-70
2022/06/30 07:14:27;;;;;;;13.33;12.17;;;24.90;77.80;;;24.11;62.50;97566.75;5012095;28;20506;-70
2022/06/30 07:16:54;;;;;;;10.90;9.63;;;24.90;77.80;;;24.31;62.43;97568.16;5015944;27;20469;-71
2022/06/30 07:19:21;;;;;;;10.40;9.50;;;25.00;78.00;;;24.28;62.03;97567.97;5017683;27;20475;-71
2022/06/30 07:21:49;;;;;;;10.43;9.53;;;25.00;77.70;;;24.54;61.73;97573.63;5027821;27;20473;-70
2022/06/30 07:24:16;;;;;;;11.60;9.00;;;25.20;77.50;;;24.72;60.82;97562.63;5013745;27;20582;-70
2022/06/30 07:26:43;;;;;;;9.93;9.03;;;25.40;77.20;;;24.86;60.25;97566.13;5012640;28;20562;-71
2022/06/30 07:29:10;;;;;;;9.83;8.93;;;25.60;76.40;;;24.76;60.44;97563.63;5013323;28;20861;-71
2022/06/30 07:31:39;;;;;;;9.90;8.90;;;25.50;76.60;;;24.82;59.93;97559.63;5018353;28;20453;-70
2022/06/30 07:34:06;;;;;;;10.37;9.60;;;25.60;75.90;;;25.00;59.13;97562.41;5012640;27;20453;-69
2022/06/30 07:36:33;;;;;;;9.43;8.70;;;25.70;75.50;;;25.06;58.31;97550.06;5018636;28;20837;-71
2022/06/30 07:39:01;;;;;;;9.80;8.90;;;25.70;75.10;;;25.12;59.04;97559.84;5014559;27;20958;-71
2022/06/30 07:41:30;;;;;;;9.83;9.13;;;25.80;75.20;;;25.47;58.96;97564.56;5016585;28;20891;-72
2022/06/30 07:43:58;;;;;;;9.80;8.63;;;26.10;75.60;;;25.63;57.99;97556.63;5022481;28;20466;-72
2022/06/30 07:46:25;;;;;;;11.40;8.80;;;26.20;74.90;;;25.58;57.58;97562.34;5024674;28;21252;-72
2022/06/30 07:48:54;;;;;;;8.97;8.10;;;26.30;74.30;;;25.63;56.63;97553.88;5017357;28;20474;-72
2022/06/30 07:51:22;;;;;;;8.87;8.07;;;26.40;73.50;;;25.51;57.33;97550.94;5015864;27;20457;-72
2022/06/30 07:53:49;;;;;;;9.60;8.80;;;26.30;73.50;;;25.24;57.84;97552.84;5016825;28;20546;-71
2022/06/30 07:56:17;;;;;;;9.20;8.50;;;26.10;73.70;;;25.44;57.31;97554.97;5013850;28;20461;-71
2022/06/30 07:58:44;;;;;;;9.23;8.53;;;26.10;73.60;;;25.58;56.93;97554.84;5018291;27;20964;-69
2022/06/30 08:01:12;;;;;;;9.97;9.17;;;26.30;73.50;;;25.93;55.91;97550.41;5017376;27;20521;-70
2022/06/30 08:03:39;;;;;;;10.70;9.73;;;26.50;73.00;;;25.68;55.97;97553.69;5032816;27;20446;-70
2022/06/30 08:06:08;;;;;;;10.83;9.93;;;26.40;72.50;;;25.66;56.52;97547.69;5018697;27;20453;-70
2022/06/30 08:08:35;;;;;;;10.93;10.00;;;26.40;72.70;;;25.62;56.58;97546.72;5018042;27;20504;-70
2022/06/30 08:11:03;;;;;;;10.50;9.70;;;26.40;72.80;;;25.84;56.23;97547.66;5021179;27;20924;-71
2022/06/30 08:13:30;;;;;;;10.83;9.73;;;26.40;72.70;;;26.01;55.41;97536.56;5020688;27;20453;-71
2022/06/30 08:15:57;;;;;;;10.40;9.60;;;26.70;72.10;;;26.47;53.48;97544.44;5034181;28;20450;-71
2022/06/30 08:18:24;;;;;;;9.23;8.53;;;27.00;70.90;;;26.76;53.38;97545.56;5013222;28;20463;-70
2022/06/30 08:20:51;;;;;;;14.73;9.70;;;27.30;70.60;;;26.68;53.39;97546.44;5020765;28;20476;-71
2022/06/30 08:23:20;;;;;;;10.50;9.40;;;27.30;70.30;;;26.86;52.90;97548.00;5020958;28;21056;-70
2022/06/30 08:25:48;;;;;;;11.30;10.30;;;27.40;70.10;;;27.09;51.43;97542.16;5015771;27;20474;-71
2022/06/30 08:28:15;;;;;;;9.90;9.00;;;27.70;68.80;;;27.14;51.30;97543.91;5011185;27;20474;-71
2022/06/30 08:30:42;;;;;;;9.37;8.73;;;27.70;68.50;;;27.52;50.38;97542.13;5015887;28;20502;-71
2022/06/30 08:33:10;;;;;;;10.73;9.83;;;28.10;68.00;;;27.86;48.99;97540.25;5012930;28;20532;-71
2022/06/30 08:35:37;;;;;;;9.90;9.20;;;28.30;66.80;;;27.93;48.17;97545.25;5032017;27;20471;-71
2022/06/30 08:38:04;;;;;;;10.40;9.60;;;28.50;65.80;;;28.31;46.53;97532.28;5016011;28;20539;-72
2022/06/30 08:43:20;;;;;;;9.20;8.30;;;28.60;63.50;;;27.64;47.73;97527.56;5028413;27;21052;-71
2022/06/30 08:45:48;;;;;;;8.67;8.07;;;28.40;64.00;;;27.52;46.81;97533.81;5016808;28;20459;-71
2022/06/30 08:48:15;;;;;;;8.63;7.83;;;28.30;63.00;;;27.24;47.34;97528.84;5030051;28;20503;-72
2022/06/30 08:50:44;;;;;;;9.70;9.00;;;28.00;62.70;;;27.27;47.58;97530.94;5029645;28;20869;-70
2022/06/30 08:53:16;;;;;;;9.23;8.53;;;28.10;63.00;;;27.53;47.63;97524.41;5016134;27;20478;-83
2022/06/30 08:55:46;;;;;;;8.33;7.73;;;28.10;63.40;;;28.16;46.11;97525.38;5020574;27;20462;-71
2022/06/30 08:58:14;;;;;;;8.80;8.07;;;28.50;62.90;;;28.41;45.72;97523.47;5015900;27;20551;-72
2022/06/30 09:00:42;;;;;;;9.17;8.20;;;29.00;62.60;;;28.82;44.95;97527.22;5015348;27;20815;-71
2022/06/30 09:03:11;;;;;;;9.00;8.10;;;29.30;62.00;;;29.58;43.61;97514.78;5026730;28;20884;-69
2022/06/30 09:05:38;;;;;;;9.27;8.40;;;29.90;61.20;;;29.45;42.63;97511.25;5017489;27;20451;-71
2022/06/30 09:08:06;;;;;;;9.20;8.23;;;30.10;59.80;;;29.54;42.56;97513.88;5013668;27;20451;-69
2022/06/30 09:10:34;;;;;;;8.40;7.50;;;30.10;59.60;;;29.06;42.30;97516.41;5015412;27;20498;-70
2022/06/30 09:13:04;;;;;;;8.80;8.20;;;29.90;58.70;;;29.02;43.27;97510.75;5014127;27;20462;-71
2022/06/30 09:15:32;;;;;;;9.27;7.93;;;29.70;59.40;;;29.17;42.44;97516.72;5029443;27;20450;-71
2022/06/30 09:18:00;;;;;;;7.87;7.23;;;29.70;58.80;;;29.36;42.07;97527.22;5020296;28;20467;-84
2022/06/30 09:20:36;;;;;;;7.20;6.70;;;29.90;58.40;;;28.34;43.08;97517.69;5046098;27;20458;-88
2022/06/30 09:23:21;;;;;;;7.40;6.50;;;29.10;58.10;;;29.02;42.30;97521.84;5043460;28;20546;-86
2022/06/30 09:25:49;;;;;;;7.20;6.60;;;29.40;58.20;;;28.91;41.77;97518.75;5057460;28;20451;-84
2022/06/30 09:28:40;;;;;;;7.60;6.80;;;29.50;57.80;;;29.71;40.31;97511.94;5042984;28;20463;-84
2022/06/30 09:31:08;;;;;;;7.30;6.23;;;29.90;57.10;;;29.65;39.63;97509.44;5021986;28;20541;-83
2022/06/30 09:33:39;;;;;;;6.97;6.00;;;30.10;56.40;;;29.79;39.42;97497.03;5044418;28;20455;-84
2022/06/30 09:36:22;;;;;;;7.83;7.10;;;30.30;56.00;;;29.52;40.17;97510.66;5042487;28;20480;-85
2022/06/30 09:39:05;;;;;;;6.93;6.43;;;30.10;56.10;;;29.29;40.09;97476.97;5024054;28;21049;-86
2022/06/30 09:41:35;;;;;;;7.23;6.73;;;30.00;55.80;;;29.59;39.52;97499.69;5029706;28;20573;-85
2022/06/30 09:44:14;;;;;;;7.27;6.57;;;30.00;55.20;;;29.26;40.66;97509.06;5028936;27;20998;-86
2022/06/30 09:46:56;;;;;;;7.03;6.40;;;29.90;55.70;;;29.59;39.47;97498.91;5044387;27;20969;-86
2022/06/30 09:49:32;;;;;;;7.03;6.33;;;30.00;55.50;;;29.58;38.98;97495.31;5035101;28;20535;-83
2022/06/30 09:52:02;;;;;;;6.63;6.03;;;30.10;54.90;;;28.73;40.70;97492.34;5033373;27;20514;-85
2022/06/30 09:54:33;;;;;;;7.17;6.43;;;29.40;55.10;;;28.97;40.33;97497.09;5041460;28;20523;-84
2022/06/30 09:57:03;;;;;;;6.70;6.20;;;29.60;55.10;;;29.35;39.95;97489.44;5028606;27;20464;-85
2022/06/30 09:59:32;;;;;;;6.63;6.13;;;29.80;55.40;;;28.70;39.54;97450.22;5039823;28;20517;-83
2022/06/30 10:02:00;;;;;;;7.20;6.23;;;29.50;54.50;;;28.95;40.60;97493.84;5022139;28;21002;-84
2022/06/30 10:04:27;;;;;;;7.00;6.37;;;29.50;55.30;;;28.69;41.28;97461.66;5024055;27;20927;-83
2022/06/30 10:06:55;;;;;;;6.90;6.30;;;29.30;55.70;;;29.17;40.71;97483.38;5024098;27;20461;-83
2022/06/30 10:09:23;;;;;;;7.40;6.80;;;29.60;55.60;;;28.30;42.41;97461.25;5037648;27;20459;-83
2022/06/30 10:11:52;;;;;;;7.20;6.60;;;29.30;55.90;;;29.04;41.15;97471.47;5039246;28;20572;-83
2022/06/30 10:14:21;;;;;;;7.40;6.70;;;29.30;55.90;;;29.17;39.58;97434.13;5026555;28;20499;-83
2022/06/30 10:16:49;;;;;;;7.70;6.97;;;29.70;55.00;;;29.41;38.98;97427.66;5037330;28;20451;-84
2022/06/30 10:19:17;;;;;;;6.10;5.60;;;30.00;54.70;;;29.55;37.83;97455.06;5043107;27;20456;-83
2022/06/30 10:21:45;;;;;;;7.30;6.10;;;30.10;53.50;;;29.84;36.79;97468.97;5036693;27;20463;-83
2022/06/30 10:24:18;;;;;;;5.90;5.33;;;30.30;52.70;;;29.75;37.66;97474.72;5036913;27;20471;-83
2022/06/30 10:29:32;;;;;;;7.10;6.50;;;30.30;53.30;;;29.96;37.72;97445.81;5020580;28;20550;-83
2022/06/30 10:32:09;;;;;;;7.07;6.10;;;30.60;53.40;;;29.60;36.59;97405.91;5040755;27;20511;-84